Hurley, New Mexico
Current Conditions -  °F | °C
As of 9:35 PM on Saturday 22 Nov 2014 (Local Time) from KSVC Reporting Station
Clear Clear  
Wind Chill: 42°   Ceiling: Unl
Heat Index: 45°   Visibility: 10mi
Dew Point: 16°   Wind: 5mph
Humidity: 31%   Direction: 240°WSW
Pressure: 30"   Gusts: NA
Location:  32.7°N, 108.13°W
Report Text: KSVC 230435Z AUTO 24004KT 10SM CLR 07/M09 A3000 RMK AO2
Loading
Personal Weather Stations






























Interactive Weather Map New forecast layout! Learn more

10-Day Weather Forecast

Advertisements
Track Severe Weather on mobile